Time;durP1;ratioP1;P1;durP2;ratioP2;P2;SDS_P1;SDS_P2;PMS_P1;PMS_P2;Temp;Humidity;BMP_temperature;BMP_pressure;BME280_temperature;BME280_humidity;BME280_pressure;Samples;Min_cycle;Max_cycle;Signal;HPM_P1;HPM_P2
2022/09/01 00:01:42;;;;;;;;;1.00;1.00;;;;;17.95;60.63;102248.78;5032083;28;8864;-65
2022/09/01 00:04:12;;;;;;;;;0.00;0.00;;;;;17.94;60.52;102250.63;5028455;28;8833;-65
2022/09/01 00:06:39;;;;;;;;;1.00;0.50;;;;;17.94;60.33;102241.63;5030143;28;8870;-65
2022/09/01 00:09:12;;;;;;;;;1.00;1.00;;;;;17.97;60.35;102242.03;5047225;28;8970;-65
2022/09/01 00:11:41;;;;;;;;;1.00;1.00;;;;;17.94;60.59;102238.91;5033459;28;8946;-65
2022/09/01 00:14:14;;;;;;;;;1.00;1.00;;;;;17.97;60.43;102243.94;5047399;28;8923;-65
2022/09/01 00:16:58;;;;;;;;;0.00;0.00;;;;;17.91;60.72;102244.78;5036018;28;9525;-65
2022/09/01 00:19:26;;;;;;;;;1.00;1.00;;;;;17.89;60.95;102242.25;5036353;28;8914;-65
2022/09/01 00:21:53;;;;;;;;;0.00;0.00;;;;;17.93;60.57;102232.63;5038633;28;8829;-65
2022/09/01 00:24:20;;;;;;;;;1.00;1.00;;;;;17.94;60.45;102237.00;5045572;28;8841;-65
2022/09/01 00:26:47;;;;;;;;;0.75;0.75;;;;;17.90;60.61;102233.03;5041051;28;8829;-65
2022/09/01 00:29:15;;;;;;;;;1.75;0.25;;;;;17.90;61.16;102233.03;5046359;28;8837;-65
2022/09/01 00:31:42;;;;;;;;;0.00;0.00;;;;;17.90;60.85;102235.75;5032484;28;8906;-65
2022/09/01 00:34:10;;;;;;;;;2.00;2.00;;;;;17.90;61.11;102234.91;5029881;28;8828;-66
2022/09/01 00:36:36;;;;;;;;;0.25;0.25;;;;;17.94;60.83;102228.84;5026256;28;8839;-66
2022/09/01 00:39:04;;;;;;;;;1.50;1.00;;;;;17.94;60.90;102228.00;5032583;28;8902;-66
2022/09/01 00:41:36;;;;;;;;;2.00;2.00;;;;;17.98;60.36;102226.53;5034540;28;8832;-65
2022/09/01 00:44:10;;;;;;;;;0.75;0.75;;;;;17.94;60.33;102219.81;5031002;28;8851;-65
2022/09/01 00:46:44;;;;;;;;;1.00;1.00;;;;;17.83;60.83;102225.94;5034672;28;9536;-65
2022/09/01 00:49:27;;;;;;;;;1.00;1.00;;;;;17.76;61.27;102212.28;5032320;28;8828;-65
2022/09/01 00:52:13;;;;;;;;;1.00;1.00;;;;;17.76;61.00;102220.47;5029791;28;8815;-66
2022/09/01 00:54:44;;;;;;;;;0.50;0.50;;;;;17.78;61.16;102204.72;5042070;28;8943;-65
2022/09/01 00:57:12;;;;;;;;;0.50;0.50;;;;;17.83;60.95;102213.13;5028303;28;8843;-65
2022/09/01 00:59:51;;;;;;;;;0.00;0.00;;;;;17.87;60.86;102211.69;5029025;28;9518;-66
2022/09/01 01:02:17;;;;;;;;;1.00;1.00;;;;;17.83;60.82;102204.13;5044944;28;8836;-65
2022/09/01 01:04:45;;;;;;;;;1.00;1.00;;;;;17.84;60.72;102212.09;5029445;28;8852;-65
2022/09/01 01:07:12;;;;;;;;;1.00;1.00;;;;;17.86;60.90;102199.06;5018624;28;8893;-66
2022/09/01 01:09:42;;;;;;;;;1.00;1.00;;;;;17.93;60.93;102209.97;5031457;28;8828;-66
2022/09/01 01:12:12;;;;;;;;;1.75;1.50;;;;;17.95;60.72;102207.91;5023953;28;8820;-66
2022/09/01 01:14:40;;;;;;;;;2.00;2.00;;;;;17.89;60.38;102214.19;5029975;28;8824;-66
2022/09/01 01:17:11;;;;;;;;;1.25;1.00;;;;;17.74;61.05;102198.91;5026803;28;8945;-65
2022/09/01 01:23:14;;;;;;;;;1.25;1.25;;;;;17.83;61.13;102206.84;5028464;28;8819;-65
2022/09/01 01:25:43;;;;;;;;;0.25;0.25;;;;;17.85;60.78;102208.31;5032865;28;8910;-65
2022/09/01 01:28:19;;;;;;;;;0.25;0.25;;;;;17.83;60.75;102212.31;5024356;28;8894;-65
2022/09/01 01:30:54;;;;;;;;;0.00;0.00;;;;;17.81;60.96;102203.50;5025816;28;8920;-67
2022/09/01 01:33:28;;;;;;;;;1.00;1.00;;;;;17.75;60.81;102200.56;5042785;28;8856;-65
2022/09/01 01:35:56;;;;;;;;;1.00;1.00;;;;;17.72;60.50;102195.50;5028134;28;8852;-65
2022/09/01 01:38:26;;;;;;;;;1.50;1.50;;;;;17.70;60.43;102199.47;5029510;28;8864;-65
2022/09/01 01:40:54;;;;;;;;;1.00;1.00;;;;;17.72;60.29;102197.38;5029763;28;8918;-65
2022/09/01 01:43:27;;;;;;;;;1.75;1.75;;;;;17.67;60.11;102200.72;5029533;28;8882;-65
2022/09/01 01:46:01;;;;;;;;;0.00;0.00;;;;;17.67;60.45;102194.44;5030981;28;8832;-67
2022/09/01 01:48:36;;;;;;;;;0.50;0.00;;;;;17.70;60.03;102191.28;5030454;28;8844;-66
2022/09/01 01:51:04;;;;;;;;;1.00;1.00;;;;;17.74;60.17;102201.63;5030559;28;8924;-66
2022/09/01 01:53:32;;;;;;;;;0.50;0.50;;;;;17.68;59.60;102188.78;5014339;28;8859;-64
2022/09/01 01:55:59;;;;;;;;;1.25;1.25;;;;;17.65;59.93;102188.34;5026259;28;8832;-65
2022/09/01 01:58:31;;;;;;;;;1.00;1.00;;;;;17.63;59.98;102194.03;5016452;28;8827;-64
2022/09/01 02:00:58;;;;;;;;;0.00;0.00;;;;;17.56;59.55;102190.44;5020039;28;8829;-65
2022/09/01 02:03:27;;;;;;;;;1.00;1.00;;;;;17.53;59.82;102193.59;5030205;28;8825;-65
2022/09/01 02:05:54;;;;;;;;;1.00;1.00;;;;;17.47;59.60;102194.44;5045537;28;8894;-64
2022/09/01 02:08:24;;;;;;;;;1.00;1.00;;;;;17.47;59.51;102194.44;5027394;28;8909;-65
2022/09/01 02:10:54;;;;;;;;;1.00;1.00;;;;;17.50;59.56;102192.13;5044288;28;8829;-65
2022/09/01 02:13:24;;;;;;;;;2.00;2.00;;;;;17.51;59.13;102193.81;5044752;28;8959;-64
2022/09/01 02:15:53;;;;;;;;;1.25;1.25;;;;;17.44;58.95;102189.38;5020115;28;9538;-64
2022/09/01 02:18:46;;;;;;;;;2.00;2.00;;;;;17.36;59.75;102190.41;5044651;28;8850;-66
2022/09/01 02:21:19;;;;;;;;;1.00;1.00;;;;;17.33;59.53;102198.16;5026903;28;8838;-65
2022/09/01 02:23:59;;;;;;;;;0.25;0.25;;;;;17.33;59.75;102193.53;5028783;28;8856;-67
2022/09/01 02:26:39;;;;;;;;;2.00;1.25;;;;;17.33;59.68;102198.16;5024976;28;8876;-65
2022/09/01 02:29:16;;;;;;;;;1.00;1.00;;;;;17.37;59.65;102196.69;5022396;28;8870;-65
2022/09/01 02:31:45;;;;;;;;;0.75;0.75;;;;;17.38;59.52;102195.63;5026855;28;8941;-65
2022/09/01 02:34:15;;;;;;;;;2.00;2.00;;;;;17.33;59.02;102192.72;5045165;28;9566;-65
2022/09/01 02:36:48;;;;;;;;;1.50;1.50;;;;;17.24;59.47;102189.34;5045134;28;8816;-64
2022/09/01 02:39:32;;;;;;;;;0.00;0.00;;;;;17.25;59.59;102191.84;5044316;28;9494;-65
2022/09/01 02:42:00;;;;;;;;;1.00;1.00;;;;;17.24;59.18;102186.63;5028582;28;8853;-65
2022/09/01 02:44:29;;;;;;;;;1.00;1.00;;;;;17.24;59.00;102190.19;5042696;28;8878;-65
2022/09/01 02:46:57;;;;;;;;;0.75;0.75;;;;;17.20;59.16;102188.06;5027117;28;8837;-64
2022/09/01 02:49:28;;;;;;;;;1.25;1.25;;;;;17.18;59.10;102191.00;5027456;28;8918;-64
2022/09/01 02:52:00;;;;;;;;;1.25;1.25;;;;;17.17;58.75;102188.47;5027233;28;8841;-64
2022/09/01 02:54:30;;;;;;;;;1.00;1.00;;;;;17.20;59.09;102180.75;5042689;28;8831;-67
2022/09/01 02:56:56;;;;;;;;;0.75;0.75;;;;;17.19;58.37;102186.41;5028441;28;8947;-66
2022/09/01 02:59:26;;;;;;;;;2.25;1.25;;;;;17.13;58.67;102185.31;5027317;28;8911;-65
2022/09/01 03:01:56;;;;;;;;;1.00;1.00;;;;;17.05;58.87;102180.06;5026809;28;8848;-65
2022/09/01 03:04:23;;;;;;;;;0.75;0.75;;;;;16.99;59.28;102179.03;5029745;28;9513;-65
2022/09/01 03:06:53;;;;;;;;;1.00;1.00;;;;;17.00;58.88;102177.97;5013730;28;8835;-65
2022/09/01 03:09:21;;;;;;;;;1.00;1.00;;;;;16.95;59.50;102180.47;5047385;28;8841;-65
2022/09/01 03:11:50;;;;;;;;;2.00;2.00;;;;;16.88;59.76;102176.03;5032002;28;9506;-65
2022/09/01 03:14:17;;;;;;;;;1.00;1.00;;;;;16.90;59.66;102176.69;5033216;28;8828;-66
2022/09/01 03:16:44;;;;;;;;;1.00;1.00;;;;;16.95;59.32;102180.47;5029231;28;9002;-66
2022/09/01 03:19:11;;;;;;;;;0.25;0.25;;;;;17.01;59.68;102178.81;5028257;28;8932;-66
2022/09/01 03:21:42;;;;;;;;;1.00;1.00;;;;;17.05;59.21;102180.06;5030589;28;8851;-66
2022/09/01 03:24:14;;;;;;;;;1.00;1.00;;;;;17.00;59.14;102182.56;5029975;28;8858;-66
2022/09/01 03:26:42;;;;;;;;;0.75;0.75;;;;;16.88;59.09;102182.31;5030560;28;8813;-66
2022/09/01 03:29:09;;;;;;;;;1.00;1.00;;;;;16.85;59.46;102179.16;5031023;28;8878;-66
2022/09/01 03:31:37;;;;;;;;;0.50;0.50;;;;;16.80;59.53;102186.06;5031094;28;8825;-65
2022/09/01 03:34:05;;;;;;;;;1.00;1.00;;;;;16.83;59.75;102181.25;5014444;28;8840;-65
2022/09/01 03:36:38;;;;;;;;;1.00;1.00;;;;;16.91;59.58;102173.75;5030606;28;8833;-64
2022/09/01 03:39:07;;;;;;;;;2.00;2.00;;;;;16.91;58.85;102167.47;5047448;28;9552;-65
2022/09/01 03:41:40;;;;;;;;;1.00;1.00;;;;;16.92;59.20;102158.28;5030720;28;8847;-65
2022/09/01 03:44:10;;;;;;;;;1.50;0.00;;;;;16.92;58.99;102164.56;5031661;28;9767;-65
2022/09/01 03:46:39;;;;;;;;;1.00;1.00;;;;;16.94;59.16;102156.19;5030571;28;8840;-65
2022/09/01 03:49:06;;;;;;;;;0.67;0.00;;;;;16.98;58.98;102169.19;5046502;28;8856;-66
2022/09/01 03:51:37;;;;;;;;;0.75;0.75;;;;;17.00;58.92;102155.38;5029307;28;8883;-66
2022/09/01 03:54:05;;;;;;;;;1.00;1.00;;;;;17.04;58.65;102157.47;5029149;28;8849;-65
2022/09/01 03:56:32;;;;;;;;;1.00;1.00;;;;;17.02;58.25;102165.00;5030523;28;8867;-65
2022/09/01 03:58:59;;;;;;;;;1.25;1.00;;;;;17.01;58.82;102163.34;5030722;28;8828;-65
2022/09/01 04:01:28;;;;;;;;;1.00;1.00;;;;;16.96;58.29;102154.94;5047096;28;8844;-65
2022/09/01 04:03:56;;;;;;;;;0.00;0.00;;;;;16.93;58.22;102157.22;5030420;28;8856;-65
2022/09/01 04:06:25;;;;;;;;;1.75;1.75;;;;;16.94;58.41;102151.59;5030374;28;8942;-66
2022/09/01 04:08:55;;;;;;;;;0.25;0.25;;;;;16.93;58.74;102154.50;5047147;28;8900;-67
2022/09/01 04:11:22;;;;;;;;;1.75;1.00;;;;;16.94;58.48;102151.59;5031529;28;8801;-66
2022/09/01 04:13:51;;;;;;;;;1.00;1.00;;;;;16.95;58.35;102147.81;5030993;28;8829;-65
2022/09/01 04:19:19;;;;;;;;;0.25;0.25;;;;;16.97;58.11;102145.72;5027688;28;8828;-65
2022/09/01 04:21:49;;;;;;;;;1.00;1.00;;;;;17.00;58.38;102147.22;5030105;28;8833;-65
2022/09/01 04:24:17;;;;;;;;;1.00;1.00;;;;;16.95;58.29;102153.25;5029406;28;8902;-65
2022/09/01 04:26:47;;;;;;;;;1.00;1.00;;;;;16.88;58.32;102141.53;5029471;28;8960;-65
2022/09/01 04:29:18;;;;;;;;;2.00;1.00;;;;;16.90;58.30;102149.50;5029951;28;8894;-65
2022/09/01 04:31:51;;;;;;;;;0.75;0.75;;;;;16.85;58.20;102147.34;5030087;28;9711;-65
2022/09/01 04:34:22;;;;;;;;;1.00;1.00;;;;;16.86;58.13;102150.94;5030729;28;8836;-65
2022/09/01 04:36:53;;;;;;;;;2.25;1.75;;;;;16.84;58.08;102148.41;5027358;28;8942;-65
2022/09/01 04:39:21;;;;;;;;;1.75;1.00;;;;;16.78;57.99;102141.09;5029012;28;8827;-65
2022/09/01 04:41:49;;;;;;;;;1.33;1.33;;;;;16.79;58.23;102153.63;5028835;28;8828;-64
2022/09/01 04:44:17;;;;;;;;;0.00;0.00;;;;;16.81;58.04;102148.81;5030830;28;9015;-65
2022/09/01 04:46:47;;;;;;;;;1.50;1.50;;;;;16.78;57.91;102149.25;5028930;28;8845;-64
2022/09/01 04:49:19;;;;;;;;;2.00;2.00;;;;;16.79;57.97;102149.03;5047050;28;8925;-64
2022/09/01 04:51:48;;;;;;;;;1.50;1.50;;;;;16.79;57.83;102149.03;5029532;28;8966;-64
2022/09/01 04:54:21;;;;;;;;;1.00;1.00;;;;;16.78;57.83;102163.69;5045326;28;8867;-64
2022/09/01 04:56:49;;;;;;;;;2.50;2.50;;;;;16.77;57.79;102153.84;5025182;28;8840;-64
2022/09/01 04:59:19;;;;;;;;;2.00;2.00;;;;;16.73;57.41;102155.28;5029967;28;8848;-66
2022/09/01 05:01:53;;;;;;;;;2.00;2.00;;;;;16.71;57.54;102156.50;5029206;28;8951;-65
2022/09/01 05:04:23;;;;;;;;;2.00;2.00;;;;;16.72;57.62;102153.56;5031589;28;9609;-64
2022/09/01 05:06:56;;;;;;;;;1.00;1.00;;;;;16.75;57.54;102155.91;5027345;28;8924;-64
2022/09/01 05:09:24;;;;;;;;;3.00;1.25;;;;;16.71;57.34;102157.31;5030097;28;9584;-64
2022/09/01 05:11:56;;;;;;;;;2.00;2.00;;;;;16.67;57.46;102150.63;5028541;28;8825;-65
2022/09/01 05:14:28;;;;;;;;;2.00;2.00;;;;;16.70;57.13;102152.94;5046772;28;9653;-69
2022/09/01 05:16:57;;;;;;;;;1.75;1.00;;;;;16.72;57.33;102155.44;5028166;28;8963;-64
2022/09/01 05:19:28;;;;;;;;;1.25;1.00;;;;;16.68;57.51;102148.72;5041185;28;8907;-66
2022/09/01 05:21:58;;;;;;;;;2.00;1.00;;;;;16.71;57.35;102156.50;5029332;28;8848;-66
2022/09/01 05:24:29;;;;;;;;;2.75;2.00;;;;;16.71;57.47;102161.94;5029004;28;8840;-65
2022/09/01 05:26:59;;;;;;;;;1.00;1.00;;;;;16.68;57.77;102167.75;5027183;28;8848;-65
2022/09/01 05:29:28;;;;;;;;;2.00;2.00;;;;;16.71;58.08;102164.66;5024101;28;8876;-65
2022/09/01 05:31:57;;;;;;;;;1.00;1.00;;;;;16.70;57.33;102158.38;5026300;28;8872;-65
2022/09/01 05:34:25;;;;;;;;;2.00;2.00;;;;;16.68;57.16;102157.72;5024880;28;8912;-65
2022/09/01 05:36:56;;;;;;;;;1.50;1.50;;;;;16.60;58.04;102167.94;5026521;28;8923;-64
2022/09/01 05:39:24;;;;;;;;;2.00;1.25;;;;;16.59;58.07;102158.13;5043561;28;8978;-64
2022/09/01 05:41:51;;;;;;;;;2.00;2.00;;;;;16.60;58.02;102155.19;5027659;28;8852;-65
2022/09/01 05:44:21;;;;;;;;;1.00;1.00;;;;;16.56;58.15;102159.34;5029004;28;8828;-65
2022/09/01 05:46:50;;;;;;;;;2.00;2.00;;;;;16.56;58.34;102159.34;5045714;28;8902;-64
2022/09/01 05:49:17;;;;;;;;;1.00;1.00;;;;;16.63;58.23;102159.38;5014881;28;9044;-65
2022/09/01 05:51:50;;;;;;;;;2.00;2.00;;;;;16.65;58.31;102162.72;5025412;28;8896;-65
2022/09/01 05:54:24;;;;;;;;;2.00;2.00;;;;;16.66;58.09;102161.72;5028392;28;8941;-65
2022/09/01 05:56:52;;;;;;;;;2.67;2.33;;;;;16.60;58.35;102163.34;5027479;28;8906;-65
2022/09/01 05:59:22;;;;;;;;;6.00;1.33;;;;;16.62;58.43;102168.59;5028511;28;9130;-64
2022/09/01 06:01:55;;;;;;;;;3.50;3.00;;;;;16.65;57.93;102168.16;5028495;28;8936;-65
2022/09/01 06:04:24;;;;;;;;;2.25;2.25;;;;;16.64;57.93;102166.50;5027058;28;8840;-64
2022/09/01 06:06:52;;;;;;;;;3.25;2.75;;;;;16.63;57.53;102170.25;5024543;28;8926;-65
2022/09/01 06:09:43;;;;;;;;;1.25;1.25;;;;;16.68;58.00;102171.31;5029050;28;8840;-64
2022/09/01 06:12:16;;;;;;;;;3.00;3.00;;;;;16.72;57.73;102177.19;5028550;28;8898;-64
2022/09/01 06:14:45;;;;;;;;;2.00;2.00;;;;;16.68;57.48;102170.50;5027917;28;8828;-64
2022/09/01 06:17:15;;;;;;;;;4.00;2.75;;;;;16.69;57.21;102169.44;5026979;28;8852;-65
2022/09/01 06:19:42;;;;;;;;;2.25;1.25;;;;;16.77;57.03;102172.00;5042677;28;8839;-65
2022/09/01 06:22:09;;;;;;;;;1.00;1.00;;;;;16.84;56.97;102172.06;5025329;28;8848;-65
2022/09/01 06:24:38;;;;;;;;;3.00;3.00;;;;;16.80;56.74;102169.72;5027603;28;8863;-64
2022/09/01 06:27:08;;;;;;;;;3.67;2.67;;;;;16.75;56.91;102169.50;5028140;28;9627;-65
2022/09/01 06:29:38;;;;;;;;;3.33;3.33;;;;;16.76;56.79;102176.63;5026229;28;8939;-65
2022/09/01 06:32:08;;;;;;;;;2.67;2.67;;;;;16.78;56.93;102173.72;5023365;28;9084;-65
2022/09/01 06:34:41;;;;;;;;;2.75;2.75;;;;;16.83;56.93;102175.81;5027961;28;8945;-65
2022/09/01 06:37:08;;;;;;;;;4.33;4.33;;;;;16.82;56.78;102175.00;5041886;28;8979;-65
2022/09/01 06:39:37;;;;;;;;;2.00;2.00;;;;;16.89;56.96;102180.44;5027606;28;8957;-65
2022/09/01 06:42:04;;;;;;;;;3.00;3.00;;;;;16.91;56.65;102181.09;5024424;28;8935;-65
2022/09/01 06:44:44;;;;;;;;;3.00;2.00;;;;;16.94;56.45;102186.13;5031903;28;8836;-65
2022/09/01 06:47:11;;;;;;;;;2.25;2.00;;;;;16.97;56.31;102182.97;5030943;28;8894;-65
2022/09/01 06:49:39;;;;;;;;;4.00;3.00;;;;;16.94;56.15;102183.41;5026281;28;8859;-65
2022/09/01 06:52:14;;;;;;;;;6.67;4.00;;;;;16.89;56.54;102183.16;5029416;28;8946;-65
2022/09/01 06:54:42;;;;;;;;;4.00;4.00;;;;;16.84;56.22;102180.22;5026750;28;8948;-65
2022/09/01 06:57:10;;;;;;;;;4.25;2.75;;;;;16.85;56.46;102179.16;5031309;28;8954;-66
2022/09/01 06:59:56;;;;;;;;;3.25;3.25;;;;;16.90;55.83;102188.41;5030879;28;8864;-66
2022/09/01 07:02:23;;;;;;;;;3.75;3.00;;;;;16.91;55.95;102190.06;5047355;28;8959;-65
2022/09/01 07:05:18;;;;;;;;;2.50;1.75;;;;;17.00;55.63;102193.47;5026973;28;8872;-65
2022/09/01 07:08:08;;;;;;;;;3.50;3.50;;;;;17.04;55.58;102192.84;5031702;28;9553;-66
2022/09/01 07:10:48;;;;;;;;;6.75;5.00;;;;;17.10;55.48;102184.94;5031864;28;8852;-66
2022/09/01 07:13:38;;;;;;;;;2.25;2.25;;;;;17.16;54.71;102190.38;5033771;28;8974;-66
2022/09/01 07:16:39;;;;;;;;;3.75;3.75;;;;;17.19;54.51;102187.25;5014903;28;8949;-65
2022/09/01 07:19:17;;;;;;;;;2.00;2.00;;;;;17.26;54.42;102195.44;5048174;28;8884;-65
2022/09/01 07:21:49;;;;;;;;;5.00;3.00;;;;;17.24;54.24;102195.63;5031633;28;8837;-65
2022/09/01 07:24:34;;;;;;;;;2.00;2.00;;;;;17.26;54.11;102195.44;5048914;28;8894;-65
2022/09/01 07:27:27;;;;;;;;;2.00;2.00;;;;;17.29;54.47;102193.13;5031037;28;9605;-66
2022/09/01 07:30:02;;;;;;;;;3.00;3.00;;;;;17.36;54.11;102195.88;5048622;28;8856;-65
2022/09/01 07:32:29;;;;;;;;;3.00;3.00;;;;;17.34;54.31;102188.94;5030307;28;8820;-66
2022/09/01 07:35:21;;;;;;;;;1.00;1.00;;;;;17.39;54.50;102197.34;5031614;28;8832;-66
2022/09/01 07:37:49;;;;;;;;;4.00;4.00;;;;;17.46;54.33;102199.03;5014497;28;8894;-66
2022/09/01 07:40:40;;;;;;;;;3.00;3.00;;;;;17.47;54.19;102200.69;5031066;28;8937;-65
2022/09/01 07:43:50;;;;;;;;;2.00;2.00;;;;;17.52;54.52;102195.47;5043122;28;8844;-66
2022/09/01 07:46:58;;;;;;;;;1.00;1.00;;;;;17.63;54.26;102199.47;5031031;28;8840;-65
2022/09/01 07:49:44;;;;;;;;;2.75;2.75;;;;;17.72;54.25;102208.28;5040291;28;8906;-67
2022/09/01 07:52:34;;;;;;;;;2.00;2.00;;;;;17.77;53.68;102209.34;5030449;28;9112;-64
2022/09/01 07:55:02;;;;;;;;;1.00;1.00;;;;;17.77;54.02;102203.06;5029110;28;8846;-64
2022/09/01 07:57:30;;;;;;;;;1.75;1.75;;;;;17.85;53.50;102208.31;5030631;28;8821;-66
2022/09/01 07:59:56;;;;;;;;;2.50;2.50;;;;;17.93;53.29;102201.81;5031177;28;8922;-66
2022/09/01 08:02:38;;;;;;;;;1.00;1.00;;;;;18.00;53.41;102203.50;5025793;28;8816;-65
2022/09/01 08:05:07;;;;;;;;;1.00;1.00;;;;;18.11;53.13;102202.03;5040416;28;8816;-65
2022/09/01 08:07:38;;;;;;;;;2.00;2.00;;;;;18.18;52.41;102200.09;5023934;28;8821;-65
2022/09/01 08:10:18;;;;;;;;;2.25;1.75;;;;;18.20;52.60;102200.75;5031033;28;8825;-65
2022/09/01 08:12:49;;;;;;;;;3.25;2.75;;;;;18.21;52.37;102201.59;5047254;28;8856;-66
2022/09/01 08:15:24;;;;;;;;;1.50;1.50;;;;;18.29;52.68;102204.91;5047806;28;8864;-65
2022/09/01 08:18:12;;;;;;;;;5.75;2.25;;;;;18.33;52.12;102199.06;5020692;28;8875;-65
2022/09/01 08:20:46;;;;;;;;;4.00;3.25;;;;;18.40;51.55;102202.59;5030879;28;8852;-65
2022/09/01 08:23:36;;;;;;;;;2.75;2.00;;;;;18.44;51.81;102212.03;5047741;28;8820;-65
2022/09/01 08:26:05;;;;;;;;;1.00;1.00;;;;;18.45;51.70;102209.09;5044933;28;8919;-66
2022/09/01 08:28:32;;;;;;;;;2.25;2.25;;;;;18.46;50.72;102205.31;5027050;28;8835;-64
2022/09/01 08:30:59;;;;;;;;;3.00;1.50;;;;;18.47;50.58;102206.13;5035469;28;8933;-66
2022/09/01 08:33:26;;;;;;;;;4.00;3.00;;;;;18.55;50.33;102205.91;5022906;28;8918;-66
2022/09/01 08:35:54;;;;;;;;;4.00;2.50;;;;;18.58;50.27;102208.22;5030561;28;8951;-65
2022/09/01 08:38:21;;;;;;;;;2.25;2.25;;;;;18.56;49.93;102204.03;5028666;28;8853;-64
2022/09/01 08:40:54;;;;;;;;;1.00;1.00;;;;;18.68;49.74;102199.59;5028217;28;8868;-65
2022/09/01 08:43:42;;;;;;;;;1.50;1.50;;;;;18.76;49.82;102202.13;5029994;28;8940;-65
2022/09/01 08:46:20;;;;;;;;;3.00;3.00;;;;;18.85;49.54;102202.72;5028710;28;8863;-66
2022/09/01 08:48:54;;;;;;;;;3.00;2.00;;;;;18.81;49.92;102202.31;5030596;28;9623;-67
2022/09/01 08:52:10;;;;;;;;;2.00;2.00;;;;;18.84;50.11;102201.88;5021395;28;8852;-65
2022/09/01 08:54:45;;;;;;;;;1.50;1.25;;;;;18.98;49.58;102199.91;5046723;28;8848;-65
2022/09/01 08:57:18;;;;;;;;;3.00;3.00;;;;;19.12;48.78;102198.81;5028205;28;8820;-65
2022/09/01 09:00:26;;;;;;;;;1.50;1.50;;;;;19.09;49.15;102204.69;5031101;28;8836;-65
2022/09/01 09:03:16;;;;;;;;;3.00;2.00;;;;;19.13;48.60;102200.47;5031346;28;8843;-65
2022/09/01 09:05:54;;;;;;;;;1.00;1.00;;;;;19.25;48.45;102198.72;5021503;28;8832;-65
2022/09/01 09:08:58;;;;;;;;;1.50;1.50;;;;;19.40;48.11;102203.88;5031290;28;8836;-65
2022/09/01 09:11:45;;;;;;;;;2.00;2.00;;;;;19.45;47.94;102200.50;5028356;28;9329;-65
2022/09/01 09:14:33;;;;;;;;;1.50;0.50;;;;;19.47;48.04;102198.38;5039270;28;8816;-65
2022/09/01 09:17:00;;;;;;;;;3.00;3.00;;;;;19.50;47.72;102204.22;5035278;28;8832;-66
2022/09/01 09:19:29;;;;;;;;;2.25;2.25;;;;;19.44;48.57;102204.28;5044890;28;8830;-65
2022/09/01 09:21:57;;;;;;;;;0.25;0.25;;;;;19.49;48.79;102194.38;5035541;28;8899;-65
2022/09/01 09:24:51;;;;;;;;;2.00;2.00;;;;;19.60;48.42;102195.53;5032469;28;8849;-65
2022/09/01 09:27:18;;;;;;;;;2.00;2.00;;;;;19.65;48.71;102193.03;5030754;28;8840;-64
2022/09/01 09:29:47;;;;;;;;;2.00;2.00;;;;;19.73;48.55;102200.97;5031311;28;8852;-65
2022/09/01 09:32:14;;;;;;;;;1.75;1.75;;;;;19.73;48.35;102187.31;5031064;28;8820;-65
2022/09/01 09:34:51;;;;;;;;;3.00;2.50;;;;;19.76;48.33;102188.72;5030991;28;8837;-65
2022/09/01 09:37:29;;;;;;;;;3.25;3.25;;;;;19.73;48.15;102184.56;5026227;28;8945;-65
2022/09/01 09:40:23;;;;;;;;;2.25;2.25;;;;;19.87;48.25;102179.81;5011275;28;8859;-65
2022/09/01 09:42:53;;;;;;;;;2.25;2.25;;;;;19.94;47.50;102169.66;5018965;28;8835;-65
2022/09/01 09:45:29;;;;;;;;;2.00;2.00;;;;;20.08;46.73;102164.06;5013242;28;8961;-65
2022/09/01 09:47:57;;;;;;;;;2.00;2.00;;;;;20.19;46.63;102163.34;5030185;28;8840;-66
2022/09/01 09:50:36;;;;;;;;;2.00;2.00;;;;;20.23;46.06;102159.91;5030482;28;8894;-65
2022/09/01 09:53:15;;;;;;;;;1.25;1.25;;;;;20.23;45.21;102179.06;5030787;28;8836;-65
2022/09/01 09:55:57;;;;;;;;;1.50;1.50;;;;;20.28;44.46;102155.66;5030680;28;8844;-65
2022/09/01 09:58:33;;;;;;;;;2.25;2.25;;;;;20.35;44.92;102153.69;5030639;28;8820;-65
2022/09/01 10:01:15;;;;;;;;;2.00;1.75;;;;;20.52;44.57;102156.69;5028785;28;9587;-65
2022/09/01 10:03:55;;;;;;;;;1.75;1.75;;;;;20.68;43.90;102145.13;5030739;28;8825;-65
2022/09/01 10:06:37;;;;;;;;;1.00;1.00;;;;;20.74;43.91;102147.78;5045428;28;8856;-66
2022/09/01 10:09:21;;;;;;;;;2.00;2.00;;;;;20.77;44.27;102142.91;5046040;28;8870;-65
2022/09/01 10:11:51;;;;;;;;;1.00;1.00;;;;;20.79;44.62;102143.53;5030580;28;8832;-66
2022/09/01 10:14:26;;;;;;;;;2.00;2.00;;;;;20.88;43.99;102144.88;5030595;28;8935;-65
2022/09/01 10:17:29;;;;;;;;;1.00;1.00;;;;;20.96;42.08;102141.81;5028307;28;8825;-66
2022/09/01 10:20:06;;;;;;;;;1.00;1.00;;;;;20.88;42.15;102134.75;5030723;28;8856;-66
2022/09/01 10:22:35;;;;;;;;;1.00;1.00;;;;;20.99;42.28;102135.88;5030339;28;8840;-66
2022/09/01 10:25:03;;;;;;;;;1.00;1.00;;;;;21.10;42.35;102128.75;5029792;28;8820;-66
2022/09/01 10:27:35;;;;;;;;;1.00;1.00;;;;;21.22;41.86;102129.63;5030353;28;8829;-65
2022/09/01 10:30:09;;;;;;;;;1.25;1.00;;;;;21.32;41.08;102123.59;5029433;28;8894;-66
2022/09/01 10:32:45;;;;;;;;;1.00;1.00;;;;;21.38;41.18;102130.88;5011231;28;8823;-66
2022/09/01 10:35:32;;;;;;;;;1.00;1.00;;;;;21.39;41.21;102127.06;5013202;28;8831;-66
2022/09/01 10:38:05;;;;;;;;;1.25;0.75;;;;;21.36;41.50;102128.38;5030329;28;8859;-66
2022/09/01 10:40:40;;;;;;;;;0.25;0.25;;;;;21.39;40.55;102125.19;5030619;28;8860;-67
2022/09/01 10:43:34;;;;;;;;;2.00;2.00;;;;;21.42;40.44;102134.81;5031026;28;8844;-67
2022/09/01 10:46:18;;;;;;;;;0.00;0.00;;;;;21.41;40.85;102128.50;5030633;28;9577;-65
2022/09/01 10:48:56;;;;;;;;;1.00;1.00;;;;;21.52;40.54;102123.31;5013372;28;9634;-66
2022/09/01 10:51:29;;;;;;;;;1.00;1.00;;;;;21.42;40.15;102124.69;5022592;28;9573;-64
2022/09/01 10:54:04;;;;;;;;;0.25;0.25;;;;;21.48;40.47;102125.69;5030356;28;8844;-66
2022/09/01 10:56:45;;;;;;;;;1.00;1.00;;;;;21.62;39.37;102118.06;5029668;28;8914;-68
2022/09/01 10:59:16;;;;;;;;;1.50;1.00;;;;;21.58;39.82;102122.34;5030433;28;8903;-66
2022/09/01 11:02:18;;;;;;;;;1.00;1.00;;;;;21.58;39.71;102120.44;5019638;28;8835;-67
2022/09/01 11:04:51;;;;;;;;;1.00;1.00;;;;;21.72;38.95;102121.06;5010926;28;8847;-67
2022/09/01 11:07:17;;;;;;;;;1.00;1.00;;;;;21.73;38.86;102112.59;5028783;28;8891;-65
2022/09/01 11:10:24;;;;;;;;;1.00;1.00;;;;;21.76;38.66;102115.94;5014325;28;8865;-65
2022/09/01 11:13:35;;;;;;;;;0.75;0.75;;;;;21.73;38.35;102114.50;5028965;28;8867;-66
2022/09/01 11:16:33;;;;;;;;;2.00;1.00;;;;;21.79;37.53;102113.53;5029663;28;8840;-66
2022/09/01 11:19:31;;;;;;;;;1.00;1.00;;;;;21.82;37.94;102114.97;5027343;28;8816;-66
2022/09/01 11:22:14;;;;;;;;;1.00;1.00;;;;;21.70;38.57;102109.47;5029524;28;8853;-66
2022/09/01 11:24:40;;;;;;;;;0.00;0.00;;;;;21.70;38.56;102115.78;5029758;28;8906;-65
2022/09/01 11:27:28;;;;;;;;;1.25;1.25;;;;;21.81;37.72;102116.88;5029307;28;8864;-65
2022/09/01 11:30:01;;;;;;;;;1.00;0.00;;;;;22.00;36.69;102108.50;5031912;28;8836;-65
2022/09/01 11:32:34;;;;;;;;;1.00;1.00;;;;;22.03;37.33;102108.03;5021138;28;9575;-65
2022/09/01 11:35:15;;;;;;;;;1.00;1.00;;;;;22.04;37.92;102115.19;5015592;28;8982;-65
2022/09/01 11:37:47;;;;;;;;;1.00;1.00;;;;;21.92;37.18;102110.56;5013220;28;8831;-65
2022/09/01 11:40:21;;;;;;;;;0.50;0.50;;;;;22.02;37.35;102104.47;5014319;28;8930;-65
2022/09/01 11:42:52;;;;;;;;;1.00;1.00;;;;;22.07;37.16;102106.50;5033127;28;8805;-65
2022/09/01 11:45:30;;;;;;;;;0.50;0.50;;;;;22.10;36.98;102098.63;5031586;28;8844;-65
2022/09/01 11:48:04;;;;;;;;;0.00;0.00;;;;;22.13;37.11;102098.19;5032772;28;8852;-65
2022/09/01 11:50:34;;;;;;;;;1.00;1.00;;;;;22.25;37.07;102097.31;5018356;28;8829;-65
2022/09/01 11:53:11;;;;;;;;;1.00;1.00;;;;;22.25;36.85;102091.84;5033147;28;8812;-65
2022/09/01 11:55:40;;;;;;;;;1.00;1.00;;;;;22.25;36.89;102091.84;5031552;28;8848;-67
2022/09/01 11:58:12;;;;;;;;;1.25;1.25;;;;;22.27;36.51;102086.94;5032673;28;8937;-66
2022/09/01 12:00:44;;;;;;;;;2.00;1.00;;;;;22.29;36.73;102093.03;5032615;28;8887;-66
2022/09/01 12:03:23;;;;;;;;;0.75;0.00;;;;;22.25;35.34;102089.09;5031995;28;8913;-66
2022/09/01 12:06:11;;;;;;;;;1.00;1.00;;;;;22.14;36.23;102080.63;5019352;28;8847;-66
2022/09/01 12:08:41;;;;;;;;;1.00;1.00;;;;;22.08;37.50;102081.59;5032895;28;9592;-65
2022/09/01 12:11:18;;;;;;;;;1.50;1.00;;;;;22.25;38.03;102075.38;5032583;28;8852;-65
2022/09/01 12:13:55;;;;;;;;;0.50;0.00;;;;;22.38;37.56;102073.19;5032726;28;8959;-66